sensor_id;sensor_type;location;lat;lon;timestamp;temperature;humidity
15296;DHT22;7749;49.964;7.890;2023-08-21T00:01:58;22.60;99.90
15296;DHT22;7749;49.964;7.890;2023-08-21T00:04:28;22.60;99.90
15296;DHT22;7749;49.964;7.890;2023-08-21T00:06:56;22.50;99.90
15296;DHT22;7749;49.964;7.890;2023-08-21T00:09:23;22.50;99.90
15296;DHT22;7749;49.964;7.890;2023-08-21T00:11:51;22.50;99.90
15296;DHT22;7749;49.964;7.890;2023-08-21T00:14:19;22.40;99.90
15296;DHT22;7749;49.964;7.890;2023-08-21T00:16:46;22.40;99.90
15296;DHT22;7749;49.964;7.890;2023-08-21T00:19:14;22.30;99.90
15296;DHT22;7749;49.964;7.890;2023-08-21T00:21:42;22.40;99.90
15296;DHT22;7749;49.964;7.890;2023-08-21T00:24:09;22.40;99.90
15296;DHT22;7749;49.964;7.890;2023-08-21T00:26:39;22.40;99.90
15296;DHT22;7749;49.964;7.890;2023-08-21T00:29:10;22.30;99.90
15296;DHT22;7749;49.964;7.890;2023-08-21T00:31:37;22.30;99.90
15296;DHT22;7749;49.964;7.890;2023-08-21T00:34:05;22.30;99.90
15296;DHT22;7749;49.964;7.890;2023-08-21T00:36:32;22.10;99.90
15296;DHT22;7749;49.964;7.890;2023-08-21T00:39:00;22.10;99.90
15296;DHT22;7749;49.964;7.890;2023-08-21T00:41:29;22.00;99.90
15296;DHT22;7749;49.964;7.890;2023-08-21T00:43:56;22.10;99.90
15296;DHT22;7749;49.964;7.890;2023-08-21T00:46:24;22.10;99.90
15296;DHT22;7749;49.964;7.890;2023-08-21T00:48:52;22.10;99.90
15296;DHT22;7749;49.964;7.890;2023-08-21T00:51:20;22.10;99.90
15296;DHT22;7749;49.964;7.890;2023-08-21T00:53:47;22.20;99.90
15296;DHT22;7749;49.964;7.890;2023-08-21T00:56:15;22.10;99.90
15296;DHT22;7749;49.964;7.890;2023-08-21T00:58:43;22.00;99.90
15296;DHT22;7749;49.964;7.890;2023-08-21T01:01:12;22.10;99.90
15296;DHT22;7749;49.964;7.890;2023-08-21T01:03:40;22.00;99.90
15296;DHT22;7749;49.964;7.890;2023-08-21T01:06:11;22.00;99.90
15296;DHT22;7749;49.964;7.890;2023-08-21T01:09:02;21.90;99.90
15296;DHT22;7749;49.964;7.890;2023-08-21T01:14:29;21.80;99.90
15296;DHT22;7749;49.964;7.890;2023-08-21T01:17:00;21.80;99.90
15296;DHT22;7749;49.964;7.890;2023-08-21T01:19:41;21.80;99.90
15296;DHT22;7749;49.964;7.890;2023-08-21T01:22:09;21.70;99.90
15296;DHT22;7749;49.964;7.890;2023-08-21T01:24:37;21.70;99.90
15296;DHT22;7749;49.964;7.890;2023-08-21T01:27:05;21.70;99.90
15296;DHT22;7749;49.964;7.890;2023-08-21T01:29:33;21.70;99.90
15296;DHT22;7749;49.964;7.890;2023-08-21T01:34:55;21.70;99.90
15296;DHT22;7749;49.964;7.890;2023-08-21T01:37:24;21.70;99.90
15296;DHT22;7749;49.964;7.890;2023-08-21T01:39:51;21.70;99.90
15296;DHT22;7749;49.964;7.890;2023-08-21T01:42:19;21.70;99.90
15296;DHT22;7749;49.964;7.890;2023-08-21T01:44:46;21.70;99.90
15296;DHT22;7749;49.964;7.890;2023-08-21T01:47:14;21.70;99.90
15296;DHT22;7749;49.964;7.890;2023-08-21T01:49:41;21.70;99.90
15296;DHT22;7749;49.964;7.890;2023-08-21T01:52:09;21.70;99.90
15296;DHT22;7749;49.964;7.890;2023-08-21T01:54:37;21.70;99.90
15296;DHT22;7749;49.964;7.890;2023-08-21T01:57:04;21.70;99.90
15296;DHT22;7749;49.964;7.890;2023-08-21T01:59:32;21.70;99.90
15296;DHT22;7749;49.964;7.890;2023-08-21T02:02:00;21.70;99.90
15296;DHT22;7749;49.964;7.890;2023-08-21T02:04:27;21.70;99.90
15296;DHT22;7749;49.964;7.890;2023-08-21T02:06:54;21.60;99.90
15296;DHT22;7749;49.964;7.890;2023-08-21T02:09:22;21.50;99.90
15296;DHT22;7749;49.964;7.890;2023-08-21T02:11:49;21.50;99.90
15296;DHT22;7749;49.964;7.890;2023-08-21T02:14:16;21.40;99.90
15296;DHT22;7749;49.964;7.890;2023-08-21T02:16:44;21.40;99.90
15296;DHT22;7749;49.964;7.890;2023-08-21T02:19:11;21.40;99.90
15296;DHT22;7749;49.964;7.890;2023-08-21T02:21:39;21.40;99.90
15296;DHT22;7749;49.964;7.890;2023-08-21T02:24:06;21.40;99.90
15296;DHT22;7749;49.964;7.890;2023-08-21T02:26:34;21.30;99.90
15296;DHT22;7749;49.964;7.890;2023-08-21T02:29:01;21.40;99.90
15296;DHT22;7749;49.964;7.890;2023-08-21T02:31:29;21.30;99.90
15296;DHT22;7749;49.964;7.890;2023-08-21T02:33:56;21.30;99.90
15296;DHT22;7749;49.964;7.890;2023-08-21T02:36:23;21.20;99.90
15296;DHT22;7749;49.964;7.890;2023-08-21T02:38:51;21.20;99.90
15296;DHT22;7749;49.964;7.890;2023-08-21T02:41:18;21.20;99.90
15296;DHT22;7749;49.964;7.890;2023-08-21T02:43:46;21.10;99.90
15296;DHT22;7749;49.964;7.890;2023-08-21T02:46:13;21.10;99.90
15296;DHT22;7749;49.964;7.890;2023-08-21T02:48:41;21.10;99.90
15296;DHT22;7749;49.964;7.890;2023-08-21T02:51:08;21.10;99.90
15296;DHT22;7749;49.964;7.890;2023-08-21T02:53:36;21.20;99.90
15296;DHT22;7749;49.964;7.890;2023-08-21T02:56:03;21.20;99.90
15296;DHT22;7749;49.964;7.890;2023-08-21T02:58:31;21.10;99.90
15296;DHT22;7749;49.964;7.890;2023-08-21T03:00:58;21.20;99.90
15296;DHT22;7749;49.964;7.890;2023-08-21T03:03:26;21.10;99.90
15296;DHT22;7749;49.964;7.890;2023-08-21T03:05:53;21.10;99.90
15296;DHT22;7749;49.964;7.890;2023-08-21T03:08:20;21.10;99.90
15296;DHT22;7749;49.964;7.890;2023-08-21T03:10:48;21.10;99.90
15296;DHT22;7749;49.964;7.890;2023-08-21T03:13:15;21.10;99.90
15296;DHT22;7749;49.964;7.890;2023-08-21T03:15:46;21.10;99.90
15296;DHT22;7749;49.964;7.890;2023-08-21T03:18:14;21.10;99.90
15296;DHT22;7749;49.964;7.890;2023-08-21T03:20:45;21.00;99.90
15296;DHT22;7749;49.964;7.890;2023-08-21T03:23:13;21.10;99.90
15296;DHT22;7749;49.964;7.890;2023-08-21T03:25:40;21.10;99.90
15296;DHT22;7749;49.964;7.890;2023-08-21T03:28:08;21.10;99.90
15296;DHT22;7749;49.964;7.890;2023-08-21T03:30:35;21.10;99.90
15296;DHT22;7749;49.964;7.890;2023-08-21T03:33:06;21.00;99.90
15296;DHT22;7749;49.964;7.890;2023-08-21T03:35:34;21.00;99.90
15296;DHT22;7749;49.964;7.890;2023-08-21T03:38:02;21.00;99.90
15296;DHT22;7749;49.964;7.890;2023-08-21T03:40:30;21.00;99.90
15296;DHT22;7749;49.964;7.890;2023-08-21T03:42:58;21.00;99.90
15296;DHT22;7749;49.964;7.890;2023-08-21T03:45:25;21.00;99.90
15296;DHT22;7749;49.964;7.890;2023-08-21T03:47:52;21.00;99.90
15296;DHT22;7749;49.964;7.890;2023-08-21T03:50:20;20.90;99.90
15296;DHT22;7749;49.964;7.890;2023-08-21T03:52:47;20.90;99.90
15296;DHT22;7749;49.964;7.890;2023-08-21T03:55:15;20.90;99.90
15296;DHT22;7749;49.964;7.890;2023-08-21T03:57:42;20.90;99.90
15296;DHT22;7749;49.964;7.890;2023-08-21T04:00:10;20.90;99.90
15296;DHT22;7749;49.964;7.890;2023-08-21T04:02:38;21.00;99.90
15296;DHT22;7749;49.964;7.890;2023-08-21T04:05:06;20.90;99.90
15296;DHT22;7749;49.964;7.890;2023-08-21T04:07:34;20.90;99.90
15296;DHT22;7749;49.964;7.890;2023-08-21T04:10:01;20.90;99.90
15296;DHT22;7749;49.964;7.890;2023-08-21T04:12:28;20.90;99.90
15296;DHT22;7749;49.964;7.890;2023-08-21T04:14:56;20.80;99.90
15296;DHT22;7749;49.964;7.890;2023-08-21T04:17:23;20.80;99.90
15296;DHT22;7749;49.964;7.890;2023-08-21T04:19:51;20.80;99.90
15296;DHT22;7749;49.964;7.890;2023-08-21T04:22:18;20.70;99.90
15296;DHT22;7749;49.964;7.890;2023-08-21T04:24:46;20.60;99.90
15296;DHT22;7749;49.964;7.890;2023-08-21T04:27:13;20.60;99.90
15296;DHT22;7749;49.964;7.890;2023-08-21T04:29:41;20.60;99.90
15296;DHT22;7749;49.964;7.890;2023-08-21T04:32:08;20.60;99.90
15296;DHT22;7749;49.964;7.890;2023-08-21T04:34:36;20.60;99.90
15296;DHT22;7749;49.964;7.890;2023-08-21T04:37:03;20.50;99.90
15296;DHT22;7749;49.964;7.890;2023-08-21T04:39:31;20.50;99.90
15296;DHT22;7749;49.964;7.890;2023-08-21T04:41:59;20.50;99.90
15296;DHT22;7749;49.964;7.890;2023-08-21T04:44:26;20.50;99.90
15296;DHT22;7749;49.964;7.890;2023-08-21T04:46:54;20.50;99.90
15296;DHT22;7749;49.964;7.890;2023-08-21T04:49:21;20.50;99.90
15296;DHT22;7749;49.964;7.890;2023-08-21T04:51:49;20.60;99.90
15296;DHT22;7749;49.964;7.890;2023-08-21T04:54:16;20.50;99.90
15296;DHT22;7749;49.964;7.890;2023-08-21T04:56:43;20.60;99.90
15296;DHT22;7749;49.964;7.890;2023-08-21T04:59:11;20.60;99.90
15296;DHT22;7749;49.964;7.890;2023-08-21T05:01:38;20.50;99.90
15296;DHT22;7749;49.964;7.890;2023-08-21T05:04:06;20.60;99.90
15296;DHT22;7749;49.964;7.890;2023-08-21T05:06:33;20.60;99.90
15296;DHT22;7749;49.964;7.890;2023-08-21T05:09:01;20.50;99.90
15296;DHT22;7749;49.964;7.890;2023-08-21T05:11:28;20.60;99.90
15296;DHT22;7749;49.964;7.890;2023-08-21T05:13:55;20.60;99.90
15296;DHT22;7749;49.964;7.890;2023-08-21T05:16:23;20.50;99.90
15296;DHT22;7749;49.964;7.890;2023-08-21T05:18:50;20.60;99.90
15296;DHT22;7749;49.964;7.890;2023-08-21T05:21:17;20.60;99.90
15296;DHT22;7749;49.964;7.890;2023-08-21T05:23:45;20.50;99.90
15296;DHT22;7749;49.964;7.890;2023-08-21T05:26:12;20.60;99.90
15296;DHT22;7749;49.964;7.890;2023-08-21T05:28:40;20.70;99.90
15296;DHT22;7749;49.964;7.890;2023-08-21T05:31:10;20.70;99.90
15296;DHT22;7749;49.964;7.890;2023-08-21T05:33:38;20.80;99.90
15296;DHT22;7749;49.964;7.890;2023-08-21T05:36:06;21.00;99.90
15296;DHT22;7749;49.964;7.890;2023-08-21T05:38:33;20.90;99.90
15296;DHT22;7749;49.964;7.890;2023-08-21T05:41:01;21.00;99.90
15296;DHT22;7749;49.964;7.890;2023-08-21T05:43:28;21.00;99.90
15296;DHT22;7749;49.964;7.890;2023-08-21T05:45:56;21.00;99.90
15296;DHT22;7749;49.964;7.890;2023-08-21T05:48:23;21.10;99.90
15296;DHT22;7749;49.964;7.890;2023-08-21T05:50:51;21.20;99.90
15296;DHT22;7749;49.964;7.890;2023-08-21T05:53:19;21.30;99.90
15296;DHT22;7749;49.964;7.890;2023-08-21T05:55:47;21.40;99.90
15296;DHT22;7749;49.964;7.890;2023-08-21T05:58:15;21.60;99.90
15296;DHT22;7749;49.964;7.890;2023-08-21T06:00:42;21.80;99.90
15296;DHT22;7749;49.964;7.890;2023-08-21T06:03:11;22.00;99.90
15296;DHT22;7749;49.964;7.890;2023-08-21T06:05:42;22.20;99.90
15296;DHT22;7749;49.964;7.890;2023-08-21T06:08:11;22.30;99.90
15296;DHT22;7749;49.964;7.890;2023-08-21T06:10:38;22.50;99.90
15296;DHT22;7749;49.964;7.890;2023-08-21T06:13:05;22.60;99.90
15296;DHT22;7749;49.964;7.890;2023-08-21T06:15:33;22.60;99.90
15296;DHT22;7749;49.964;7.890;2023-08-21T06:18:00;22.80;99.90
15296;DHT22;7749;49.964;7.890;2023-08-21T06:20:28;23.00;99.90
15296;DHT22;7749;49.964;7.890;2023-08-21T06:22:56;23.00;99.90
15296;DHT22;7749;49.964;7.890;2023-08-21T06:25:24;23.10;99.90
15296;DHT22;7749;49.964;7.890;2023-08-21T06:27:53;22.80;99.90
15296;DHT22;7749;49.964;7.890;2023-08-21T06:30:26;22.80;99.90
15296;DHT22;7749;49.964;7.890;2023-08-21T06:32:55;22.70;99.90
15296;DHT22;7749;49.964;7.890;2023-08-21T06:35:23;22.60;99.90
15296;DHT22;7749;49.964;7.890;2023-08-21T06:37:50;22.60;99.90
15296;DHT22;7749;49.964;7.890;2023-08-21T06:40:18;22.60;99.90
15296;DHT22;7749;49.964;7.890;2023-08-21T06:42:45;22.60;99.90
15296;DHT22;7749;49.964;7.890;2023-08-21T06:45:12;22.70;99.90
15296;DHT22;7749;49.964;7.890;2023-08-21T06:47:40;22.80;99.90
15296;DHT22;7749;49.964;7.890;2023-08-21T06:50:08;23.10;99.90
15296;DHT22;7749;49.964;7.890;2023-08-21T06:52:36;23.10;99.90
15296;DHT22;7749;49.964;7.890;2023-08-21T06:55:04;23.40;99.90
15296;DHT22;7749;49.964;7.890;2023-08-21T06:57:32;23.50;99.90
15296;DHT22;7749;49.964;7.890;2023-08-21T06:59:59;23.70;99.90
15296;DHT22;7749;49.964;7.890;2023-08-21T07:02:26;23.90;99.90
15296;DHT22;7749;49.964;7.890;2023-08-21T07:04:54;24.10;99.90
15296;DHT22;7749;49.964;7.890;2023-08-21T07:07:21;24.30;99.90
15296;DHT22;7749;49.964;7.890;2023-08-21T07:09:50;24.40;99.90
15296;DHT22;7749;49.964;7.890;2023-08-21T07:12:17;24.50;99.90
15296;DHT22;7749;49.964;7.890;2023-08-21T07:14:45;24.60;99.90
15296;DHT22;7749;49.964;7.890;2023-08-21T07:17:12;24.50;99.90
15296;DHT22;7749;49.964;7.890;2023-08-21T07:19:40;24.40;99.90
15296;DHT22;7749;49.964;7.890;2023-08-21T07:22:07;24.30;99.90
15296;DHT22;7749;49.964;7.890;2023-08-21T07:24:34;24.30;99.90
15296;DHT22;7749;49.964;7.890;2023-08-21T07:27:02;24.20;99.90
15296;DHT22;7749;49.964;7.890;2023-08-21T07:29:29;24.40;99.90
15296;DHT22;7749;49.964;7.890;2023-08-21T07:31:57;24.20;99.90
15296;DHT22;7749;49.964;7.890;2023-08-21T07:34:24;24.30;99.90
15296;DHT22;7749;49.964;7.890;2023-08-21T07:36:52;24.40;99.90
15296;DHT22;7749;49.964;7.890;2023-08-21T07:39:20;24.70;99.90
15296;DHT22;7749;49.964;7.890;2023-08-21T07:41:47;24.90;99.90
15296;DHT22;7749;49.964;7.890;2023-08-21T07:44:14;25.00;99.90
15296;DHT22;7749;49.964;7.890;2023-08-21T07:46:42;24.90;99.90
15296;DHT22;7749;49.964;7.890;2023-08-21T07:49:09;25.00;99.90
15296;DHT22;7749;49.964;7.890;2023-08-21T07:51:37;25.00;99.90
15296;DHT22;7749;49.964;7.890;2023-08-21T07:54:04;25.20;99.90
15296;DHT22;7749;49.964;7.890;2023-08-21T07:56:32;25.30;99.90
15296;DHT22;7749;49.964;7.890;2023-08-21T07:59:00;25.60;99.90
15296;DHT22;7749;49.964;7.890;2023-08-21T08:01:28;25.70;99.90
15296;DHT22;7749;49.964;7.890;2023-08-21T08:03:56;25.80;99.90
15296;DHT22;7749;49.964;7.890;2023-08-21T08:06:24;25.90;99.90
15296;DHT22;7749;49.964;7.890;2023-08-21T08:08:51;26.10;99.90
15296;DHT22;7749;49.964;7.890;2023-08-21T08:11:19;26.10;99.90
15296;DHT22;7749;49.964;7.890;2023-08-21T08:13:46;26.20;99.90
15296;DHT22;7749;49.964;7.890;2023-08-21T08:16:14;26.30;99.90
15296;DHT22;7749;49.964;7.890;2023-08-21T08:18:42;26.40;99.90
15296;DHT22;7749;49.964;7.890;2023-08-21T08:21:11;26.40;99.90
15296;DHT22;7749;49.964;7.890;2023-08-21T08:23:39;26.40;99.90
15296;DHT22;7749;49.964;7.890;2023-08-21T08:26:06;26.40;99.90
15296;DHT22;7749;49.964;7.890;2023-08-21T08:28:35;26.50;99.90
15296;DHT22;7749;49.964;7.890;2023-08-21T08:31:03;26.50;99.90
15296;DHT22;7749;49.964;7.890;2023-08-21T08:33:30;26.50;99.90
15296;DHT22;7749;49.964;7.890;2023-08-21T08:35:58;26.70;99.90
15296;DHT22;7749;49.964;7.890;2023-08-21T08:38:25;26.70;99.90
15296;DHT22;7749;49.964;7.890;2023-08-21T08:40:54;26.80;99.90
15296;DHT22;7749;49.964;7.890;2023-08-21T08:43:24;26.90;99.90
15296;DHT22;7749;49.964;7.890;2023-08-21T08:45:52;27.10;99.90
15296;DHT22;7749;49.964;7.890;2023-08-21T08:48:21;27.30;99.90
15296;DHT22;7749;49.964;7.890;2023-08-21T08:50:50;27.30;99.90
15296;DHT22;7749;49.964;7.890;2023-08-21T08:53:19;27.40;99.90
15296;DHT22;7749;49.964;7.890;2023-08-21T08:55:46;27.40;99.90
15296;DHT22;7749;49.964;7.890;2023-08-21T08:58:15;27.50;99.90
15296;DHT22;7749;49.964;7.890;2023-08-21T09:00:43;27.60;99.90
15296;DHT22;7749;49.964;7.890;2023-08-21T09:03:10;27.70;99.90
15296;DHT22;7749;49.964;7.890;2023-08-21T09:05:40;27.80;99.90
15296;DHT22;7749;49.964;7.890;2023-08-21T09:08:11;27.90;99.90
15296;DHT22;7749;49.964;7.890;2023-08-21T09:10:40;28.10;99.90
15296;DHT22;7749;49.964;7.890;2023-08-21T09:13:18;28.20;99.90
15296;DHT22;7749;49.964;7.890;2023-08-21T09:15:47;28.10;99.90
15296;DHT22;7749;49.964;7.890;2023-08-21T09:18:15;28.20;99.90
15296;DHT22;7749;49.964;7.890;2023-08-21T09:20:43;28.30;99.90
15296;DHT22;7749;49.964;7.890;2023-08-21T09:23:16;28.40;99.90
15296;DHT22;7749;49.964;7.890;2023-08-21T09:25:45;28.50;99.90
15296;DHT22;7749;49.964;7.890;2023-08-21T09:28:20;28.70;99.90
15296;DHT22;7749;49.964;7.890;2023-08-21T09:30:50;28.90;99.90
15296;DHT22;7749;49.964;7.890;2023-08-21T09:33:19;29.00;99.90
15296;DHT22;7749;49.964;7.890;2023-08-21T09:35:49;29.20;99.90
15296;DHT22;7749;49.964;7.890;2023-08-21T09:38:18;29.30;99.90
15296;DHT22;7749;49.964;7.890;2023-08-21T09:40:53;29.40;99.90
15296;DHT22;7749;49.964;7.890;2023-08-21T09:43:23;29.50;99.90
15296;DHT22;7749;49.964;7.890;2023-08-21T09:45:53;29.50;99.90
15296;DHT22;7749;49.964;7.890;2023-08-21T09:48:25;29.60;99.90
15296;DHT22;7749;49.964;7.890;2023-08-21T09:50:56;29.70;99.90
15296;DHT22;7749;49.964;7.890;2023-08-21T09:53:24;29.80;99.90
15296;DHT22;7749;49.964;7.890;2023-08-21T09:55:55;29.90;99.90
15296;DHT22;7749;49.964;7.890;2023-08-21T09:58:24;30.00;99.90
15296;DHT22;7749;49.964;7.890;2023-08-21T10:00:56;30.20;99.90
15296;DHT22;7749;49.964;7.890;2023-08-21T10:03:25;30.30;99.90
15296;DHT22;7749;49.964;7.890;2023-08-21T10:05:56;30.40;99.90
15296;DHT22;7749;49.964;7.890;2023-08-21T10:08:25;30.50;99.90
15296;DHT22;7749;49.964;7.890;2023-08-21T10:10:54;30.70;99.90
15296;DHT22;7749;49.964;7.890;2023-08-21T10:13:22;30.90;99.90
15296;DHT22;7749;49.964;7.890;2023-08-21T10:15:50;31.00;99.90
15296;DHT22;7749;49.964;7.890;2023-08-21T10:20:50;31.50;99.90
15296;DHT22;7749;49.964;7.890;2023-08-21T10:23:49;31.70;99.90
15296;DHT22;7749;49.964;7.890;2023-08-21T10:26:22;32.00;99.90
15296;DHT22;7749;49.964;7.890;2023-08-21T10:28:59;32.20;99.90
15296;DHT22;7749;49.964;7.890;2023-08-21T10:31:40;32.30;99.90
15296;DHT22;7749;49.964;7.890;2023-08-21T10:34:11;32.40;99.90
15296;DHT22;7749;49.964;7.890;2023-08-21T10:41:56;32.60;99.90
15296;DHT22;7749;49.964;7.890;2023-08-21T10:49:57;32.90;99.90
15296;DHT22;7749;49.964;7.890;2023-08-21T10:55:01;32.80;97.60
15296;DHT22;7749;49.964;7.890;2023-08-21T10:57:32;32.90;97.60
15296;DHT22;7749;49.964;7.890;2023-08-21T11:00:03;33.10;97.50
15296;DHT22;7749;49.964;7.890;2023-08-21T11:02:32;33.20;96.60
15296;DHT22;7749;49.964;7.890;2023-08-21T11:05:01;33.60;96.40
15296;DHT22;7749;49.964;7.890;2023-08-21T11:07:36;33.80;94.30
15296;DHT22;7749;49.964;7.890;2023-08-21T11:10:06;34.10;95.30
15296;DHT22;7749;49.964;7.890;2023-08-21T11:12:47;34.30;91.80
15296;DHT22;7749;49.964;7.890;2023-08-21T11:15:16;34.00;92.30
15296;DHT22;7749;49.964;7.890;2023-08-21T11:17:55;33.80;93.00
15296;DHT22;7749;49.964;7.890;2023-08-21T11:20:26;33.80;92.40
15296;DHT22;7749;49.964;7.890;2023-08-21T11:23:02;35.40;89.60
15296;DHT22;7749;49.964;7.890;2023-08-21T11:25:33;36.60;79.00
15296;DHT22;7749;49.964;7.890;2023-08-21T11:28:01;35.90;76.40
15296;DHT22;7749;49.964;7.890;2023-08-21T11:30:33;35.80;77.30
15296;DHT22;7749;49.964;7.890;2023-08-21T11:33:13;37.20;71.20
15296;DHT22;7749;49.964;7.890;2023-08-21T11:35:41;39.30;63.70
15296;DHT22;7749;49.964;7.890;2023-08-21T11:38:20;40.50;56.60
15296;DHT22;7749;49.964;7.890;2023-08-21T11:40:57;40.90;52.40
15296;DHT22;7749;49.964;7.890;2023-08-21T11:43:41;41.00;51.50
15296;DHT22;7749;49.964;7.890;2023-08-21T11:46:10;41.00;49.20
15296;DHT22;7749;49.964;7.890;2023-08-21T11:48:39;39.50;51.10
15296;DHT22;7749;49.964;7.890;2023-08-21T11:51:07;37.90;54.40
15296;DHT22;7749;49.964;7.890;2023-08-21T11:53:40;38.40;55.00
15296;DHT22;7749;49.964;7.890;2023-08-21T11:56:15;39.90;51.60
15296;DHT22;7749;49.964;7.890;2023-08-21T11:58:45;41.70;47.20
15296;DHT22;7749;49.964;7.890;2023-08-21T12:01:19;42.60;45.10
15296;DHT22;7749;49.964;7.890;2023-08-21T12:03:47;43.00;43.20
15296;DHT22;7749;49.964;7.890;2023-08-21T12:06:25;43.90;41.60
15296;DHT22;7749;49.964;7.890;2023-08-21T12:08:53;44.80;38.90
15296;DHT22;7749;49.964;7.890;2023-08-21T12:11:21;45.00;36.50
15296;DHT22;7749;49.964;7.890;2023-08-21T12:13:49;45.30;34.50
15296;DHT22;7749;49.964;7.890;2023-08-21T12:16:18;44.90;34.00
15296;DHT22;7749;49.964;7.890;2023-08-21T12:18:47;44.70;33.70
15296;DHT22;7749;49.964;7.890;2023-08-21T12:21:14;44.50;34.50
15296;DHT22;7749;49.964;7.890;2023-08-21T12:23:42;45.50;33.50
15296;DHT22;7749;49.964;7.890;2023-08-21T12:26:09;45.90;30.90
15296;DHT22;7749;49.964;7.890;2023-08-21T12:28:37;46.10;30.50
15296;DHT22;7749;49.964;7.890;2023-08-21T12:31:04;46.40;30.00
15296;DHT22;7749;49.964;7.890;2023-08-21T12:33:32;44.90;28.60
15296;DHT22;7749;49.964;7.890;2023-08-21T12:35:59;45.00;30.00
15296;DHT22;7749;49.964;7.890;2023-08-21T12:38:27;45.10;29.50
15296;DHT22;7749;49.964;7.890;2023-08-21T12:40:56;44.10;29.50
15296;DHT22;7749;49.964;7.890;2023-08-21T12:43:24;42.40;31.60
15296;DHT22;7749;49.964;7.890;2023-08-21T12:45:52;43.40;31.20
15296;DHT22;7749;49.964;7.890;2023-08-21T12:48:20;43.40;30.40
15296;DHT22;7749;49.964;7.890;2023-08-21T12:50:47;43.50;30.50
15296;DHT22;7749;49.964;7.890;2023-08-21T12:53:15;44.80;29.70
15296;DHT22;7749;49.964;7.890;2023-08-21T12:55:42;44.70;28.50
15296;DHT22;7749;49.964;7.890;2023-08-21T12:58:10;42.60;29.90
15296;DHT22;7749;49.964;7.890;2023-08-21T13:00:40;40.90;31.30
15296;DHT22;7749;49.964;7.890;2023-08-21T13:03:08;39.50;33.60
15296;DHT22;7749;49.964;7.890;2023-08-21T13:05:36;38.70;35.10
15296;DHT22;7749;49.964;7.890;2023-08-21T13:08:03;39.70;35.00
15296;DHT22;7749;49.964;7.890;2023-08-21T13:10:31;41.60;32.10
15296;DHT22;7749;49.964;7.890;2023-08-21T13:12:58;43.30;30.00
15296;DHT22;7749;49.964;7.890;2023-08-21T13:15:27;43.40;29.70
15296;DHT22;7749;49.964;7.890;2023-08-21T13:17:54;42.30;30.40
15296;DHT22;7749;49.964;7.890;2023-08-21T13:20:22;42.60;30.90
15296;DHT22;7749;49.964;7.890;2023-08-21T13:22:51;43.90;30.10
15296;DHT22;7749;49.964;7.890;2023-08-21T13:25:20;44.70;29.50
15296;DHT22;7749;49.964;7.890;2023-08-21T13:27:49;45.20;29.00
15296;DHT22;7749;49.964;7.890;2023-08-21T13:30:16;45.20;28.50
15296;DHT22;7749;49.964;7.890;2023-08-21T13:32:44;44.20;28.00
15296;DHT22;7749;49.964;7.890;2023-08-21T13:35:12;42.90;29.30
15296;DHT22;7749;49.964;7.890;2023-08-21T13:37:40;41.30;31.00
15296;DHT22;7749;49.964;7.890;2023-08-21T13:40:08;39.40;33.00
15296;DHT22;7749;49.964;7.890;2023-08-21T13:42:41;38.70;35.50
15296;DHT22;7749;49.964;7.890;2023-08-21T13:45:10;39.80;35.50
15296;DHT22;7749;49.964;7.890;2023-08-21T13:47:44;39.90;33.80
15296;DHT22;7749;49.964;7.890;2023-08-21T13:50:14;39.10;35.30
15296;DHT22;7749;49.964;7.890;2023-08-21T13:52:42;37.80;36.40
15296;DHT22;7749;49.964;7.890;2023-08-21T13:55:10;37.30;37.20
15296;DHT22;7749;49.964;7.890;2023-08-21T13:57:38;38.60;36.20
15296;DHT22;7749;49.964;7.890;2023-08-21T14:00:07;40.00;34.80
15296;DHT22;7749;49.964;7.890;2023-08-21T14:02:40;41.50;33.20
15296;DHT22;7749;49.964;7.890;2023-08-21T14:05:09;44.10;30.20
15296;DHT22;7749;49.964;7.890;2023-08-21T14:07:38;45.20;28.20
15296;DHT22;7749;49.964;7.890;2023-08-21T14:10:07;44.30;28.40
15296;DHT22;7749;49.964;7.890;2023-08-21T14:12:35;42.90;29.30
15296;DHT22;7749;49.964;7.890;2023-08-21T14:15:06;40.90;31.10
15296;DHT22;7749;49.964;7.890;2023-08-21T14:17:34;39.40;33.30
15296;DHT22;7749;49.964;7.890;2023-08-21T14:20:03;39.20;33.80
15296;DHT22;7749;49.964;7.890;2023-08-21T14:22:30;38.70;34.50
15296;DHT22;7749;49.964;7.890;2023-08-21T14:24:59;37.80;36.10
15296;DHT22;7749;49.964;7.890;2023-08-21T14:27:27;36.90;38.40
15296;DHT22;7749;49.964;7.890;2023-08-21T14:29:55;37.70;38.40
15296;DHT22;7749;49.964;7.890;2023-08-21T14:32:22;38.00;37.30
15296;DHT22;7749;49.964;7.890;2023-08-21T14:34:50;37.90;38.30
15296;DHT22;7749;49.964;7.890;2023-08-21T14:37:18;38.00;37.90
15296;DHT22;7749;49.964;7.890;2023-08-21T14:39:45;37.90;37.10
15296;DHT22;7749;49.964;7.890;2023-08-21T14:42:14;38.80;37.60
15296;DHT22;7749;49.964;7.890;2023-08-21T14:44:41;39.70;35.30
15296;DHT22;7749;49.964;7.890;2023-08-21T14:47:10;39.80;36.10
15296;DHT22;7749;49.964;7.890;2023-08-21T14:49:37;40.00;35.30
15296;DHT22;7749;49.964;7.890;2023-08-21T14:52:05;41.60;34.10
15296;DHT22;7749;49.964;7.890;2023-08-21T14:54:35;43.40;31.80
15296;DHT22;7749;49.964;7.890;2023-08-21T14:57:03;45.40;30.00
15296;DHT22;7749;49.964;7.890;2023-08-21T14:59:30;46.20;27.90
15296;DHT22;7749;49.964;7.890;2023-08-21T15:01:58;46.60;27.10
15296;DHT22;7749;49.964;7.890;2023-08-21T15:04:26;46.10;27.20
15296;DHT22;7749;49.964;7.890;2023-08-21T15:06:53;45.90;27.30
15296;DHT22;7749;49.964;7.890;2023-08-21T15:09:21;45.40;27.60
15296;DHT22;7749;49.964;7.890;2023-08-21T15:11:48;45.10;28.10
15296;DHT22;7749;49.964;7.890;2023-08-21T15:14:16;45.70;27.20
15296;DHT22;7749;49.964;7.890;2023-08-21T15:16:44;44.60;27.80
15296;DHT22;7749;49.964;7.890;2023-08-21T15:19:11;43.20;29.00
15296;DHT22;7749;49.964;7.890;2023-08-21T15:21:39;42.00;29.70
15296;DHT22;7749;49.964;7.890;2023-08-21T15:24:09;40.50;31.60
15296;DHT22;7749;49.964;7.890;2023-08-21T15:26:36;38.90;34.60
15296;DHT22;7749;49.964;7.890;2023-08-21T15:29:04;37.50;37.70
15296;DHT22;7749;49.964;7.890;2023-08-21T15:31:31;36.30;38.40
15296;DHT22;7749;49.964;7.890;2023-08-21T15:33:59;35.70;40.30
15296;DHT22;7749;49.964;7.890;2023-08-21T15:36:26;35.40;41.50
15296;DHT22;7749;49.964;7.890;2023-08-21T15:38:54;35.10;41.50
15296;DHT22;7749;49.964;7.890;2023-08-21T15:41:21;34.70;42.60
15296;DHT22;7749;49.964;7.890;2023-08-21T15:43:49;34.60;43.60
15296;DHT22;7749;49.964;7.890;2023-08-21T15:46:16;34.80;43.60
15296;DHT22;7749;49.964;7.890;2023-08-21T15:48:44;34.90;44.30
15296;DHT22;7749;49.964;7.890;2023-08-21T15:51:13;34.90;44.60
15296;DHT22;7749;49.964;7.890;2023-08-21T15:53:40;36.80;42.80
15296;DHT22;7749;49.964;7.890;2023-08-21T15:56:08;39.10;38.30
15296;DHT22;7749;49.964;7.890;2023-08-21T15:58:35;40.50;34.60
15296;DHT22;7749;49.964;7.890;2023-08-21T16:01:03;42.00;32.50
15296;DHT22;7749;49.964;7.890;2023-08-21T16:03:30;42.80;30.20
15296;DHT22;7749;49.964;7.890;2023-08-21T16:05:58;42.10;30.70
15296;DHT22;7749;49.964;7.890;2023-08-21T16:08:25;40.50;32.60
15296;DHT22;7749;49.964;7.890;2023-08-21T16:10:53;39.20;34.20
15296;DHT22;7749;49.964;7.890;2023-08-21T16:13:20;37.20;37.10
15296;DHT22;7749;49.964;7.890;2023-08-21T16:15:48;36.20;39.40